createdAt,value
2024-01-21T00:00:45.050Z,40.17
2024-01-21T00:03:30.851Z,40.00
2024-01-21T00:06:16.116Z,39.95
2024-01-21T00:09:01.570Z,39.87
2024-01-21T00:11:46.985Z,39.89
2024-01-21T00:14:32.354Z,39.96
2024-01-21T00:17:18.527Z,39.89
2024-01-21T00:20:04.698Z,39.94
2024-01-21T00:22:50.160Z,39.85
2024-01-21T00:25:36.226Z,39.52
2024-01-21T00:28:21.641Z,39.36
2024-01-21T00:31:07.057Z,39.30
2024-01-21T00:33:52.417Z,39.22
2024-01-21T00:36:38.116Z,39.07
2024-01-21T00:39:23.748Z,39.13
2024-01-21T00:42:09.498Z,39.14
2024-01-21T00:44:54.801Z,39.10
2024-01-21T00:47:42.520Z,39.14
2024-01-21T00:50:28.844Z,38.94
2024-01-21T00:53:15.334Z,39.02
2024-01-21T00:56:01.707Z,39.03
2024-01-21T00:58:47.332Z,38.92
2024-01-21T01:01:39.197Z,39.02
2024-01-21T01:04:24.973Z,38.92
2024-01-21T01:07:10.554Z,38.93
2024-01-21T01:09:56.131Z,39.03
2024-01-21T01:12:42.223Z,39.01
2024-01-21T01:15:27.702Z,38.85
2024-01-21T01:18:15.397Z,38.99
2024-01-21T01:21:03.636Z,38.85
2024-01-21T01:23:48.993Z,38.96
2024-01-21T01:26:34.910Z,38.78
2024-01-21T01:29:20.269Z,38.83
2024-01-21T01:32:06.697Z,38.70
2024-01-21T01:34:53.676Z,38.76
2024-01-21T01:37:39.075Z,38.83
2024-01-21T01:40:24.457Z,38.83
2024-01-21T01:43:10.759Z,38.68
2024-01-21T01:45:56.416Z,38.80
2024-01-21T01:48:42.794Z,38.74
2024-01-21T01:51:28.573Z,38.70
2024-01-21T01:54:16.628Z,38.60
2024-01-21T01:57:04.710Z,38.63
2024-01-21T01:59:49.847Z,38.58
2024-01-21T02:02:36.142Z,38.63
2024-01-21T02:05:21.774Z,38.33
2024-01-21T02:08:07.264Z,38.57
2024-01-21T02:10:53.339Z,38.56
2024-01-21T02:13:38.779Z,38.56
2024-01-21T02:16:24.446Z,38.36
2024-01-21T02:19:26.077Z,38.44
2024-01-21T02:22:11.495Z,38.44
2024-01-21T02:24:57.046Z,38.43
2024-01-21T02:27:42.521Z,38.40
2024-01-21T02:30:27.848Z,38.41
2024-01-21T02:33:14.479Z,38.32
2024-01-21T02:36:00.302Z,38.24
2024-01-21T02:38:45.769Z,38.42
2024-01-21T02:41:31.698Z,38.25
2024-01-21T02:44:17.069Z,38.29
2024-01-21T02:47:02.606Z,38.05
2024-01-21T02:49:48.045Z,38.42
2024-01-21T02:52:33.361Z,38.30
2024-01-21T02:55:18.856Z,38.20
2024-01-21T02:58:04.340Z,38.11
2024-01-21T03:00:50.098Z,38.19
2024-01-21T03:03:35.481Z,38.14
2024-01-21T03:06:20.921Z,38.06
2024-01-21T03:09:06.124Z,38.09
2024-01-21T03:11:51.365Z,38.04
2024-01-21T03:14:37.155Z,37.97
2024-01-21T03:17:22.420Z,38.01
2024-01-21T03:20:08.289Z,38.17
2024-01-21T03:22:53.577Z,38.09
2024-01-21T03:25:38.930Z,38.14
2024-01-21T03:28:24.321Z,37.94
2024-01-21T03:31:09.630Z,38.02
2024-01-21T03:33:55.223Z,37.97
2024-01-21T03:36:41.059Z,37.93
2024-01-21T03:39:26.361Z,37.88
2024-01-21T03:42:11.936Z,37.85
2024-01-21T03:44:57.222Z,37.96
2024-01-21T03:47:42.721Z,38.42
2024-01-21T03:50:27.980Z,38.54
2024-01-21T03:53:13.436Z,38.69
2024-01-21T03:55:58.867Z,38.55
2024-01-21T03:58:44.102Z,38.84
2024-01-21T04:01:29.700Z,39.24
2024-01-21T04:04:15.859Z,39.21
2024-01-21T04:07:01.122Z,38.88
2024-01-21T04:09:46.564Z,38.71
2024-01-21T04:12:31.897Z,37.60
2024-01-21T04:15:17.712Z,38.63
2024-01-21T04:18:03.721Z,38.44
2024-01-21T04:20:49.312Z,38.67
2024-01-21T04:23:34.525Z,38.71
2024-01-21T04:26:20.818Z,38.57
2024-01-21T04:29:06.483Z,38.64
2024-01-21T04:31:51.722Z,38.29
2024-01-21T04:34:37.308Z,38.10
2024-01-21T04:37:22.889Z,38.34
2024-01-21T04:40:09.095Z,38.20
2024-01-21T04:42:54.627Z,38.13
2024-01-21T04:45:39.865Z,38.07
2024-01-21T04:48:25.420Z,38.02
2024-01-21T04:51:12.243Z,37.96
2024-01-21T04:53:58.199Z,38.05
2024-01-21T04:56:43.681Z,38.13
2024-01-21T04:59:28.834Z,38.69
2024-01-21T05:02:14.303Z,38.89
2024-01-21T05:05:00.100Z,38.67
2024-01-21T05:07:45.787Z,38.79
2024-01-21T05:10:31.216Z,39.06
2024-01-21T05:13:16.643Z,39.20
2024-01-21T05:16:02.087Z,38.86
2024-01-21T05:18:47.503Z,38.79
2024-01-21T05:21:33.300Z,38.77
2024-01-21T05:24:19.009Z,38.74
2024-01-21T05:27:04.693Z,38.81
2024-01-21T05:29:50.444Z,38.73
2024-01-21T05:32:36.055Z,38.62
2024-01-21T05:35:23.875Z,38.33
2024-01-21T05:38:09.419Z,38.21
2024-01-21T05:40:54.951Z,38.27
2024-01-21T05:43:41.412Z,38.09
2024-01-21T05:46:27.452Z,38.02
2024-01-21T05:49:13.839Z,38.20
2024-01-21T05:51:59.133Z,38.21
2024-01-21T05:54:44.556Z,38.11
2024-01-21T05:57:29.867Z,38.03
2024-01-21T06:00:15.836Z,38.18
2024-01-21T06:03:01.155Z,38.34
2024-01-21T06:05:46.846Z,38.38
2024-01-21T06:08:32.225Z,38.52
2024-01-21T06:11:17.511Z,38.75
2024-01-21T06:14:03.422Z,39.27
2024-01-21T06:16:49.088Z,39.46
2024-01-21T06:19:34.771Z,39.19
2024-01-21T06:22:20.352Z,39.54
2024-01-21T06:25:06.124Z,39.46
2024-01-21T06:27:51.678Z,39.32
2024-01-21T06:30:37.038Z,39.47
2024-01-21T06:33:22.928Z,39.60
2024-01-21T06:36:09.130Z,39.35
2024-01-21T06:38:54.714Z,39.15
2024-01-21T06:41:40.688Z,39.31
2024-01-21T06:44:25.982Z,39.34
2024-01-21T06:47:11.443Z,39.20
2024-01-21T06:49:56.731Z,39.29
2024-01-21T06:52:42.325Z,39.20
2024-01-21T06:55:28.071Z,38.94
2024-01-21T06:58:13.519Z,38.96
2024-01-21T07:00:59.214Z,38.85
2024-01-21T07:03:46.726Z,38.98
2024-01-21T07:06:32.209Z,38.48
2024-01-21T07:09:17.633Z,38.54
2024-01-21T07:12:05.808Z,38.99
2024-01-21T07:14:54.570Z,39.03
2024-01-21T07:17:44.619Z,39.22
2024-01-21T07:20:30.238Z,39.03
2024-01-21T07:23:16.268Z,38.97
2024-01-21T07:26:01.546Z,38.95
2024-01-21T07:28:47.377Z,39.02
2024-01-21T07:31:32.918Z,39.09
2024-01-21T07:34:18.475Z,39.18
2024-01-21T07:37:03.843Z,39.08
2024-01-21T07:39:50.743Z,39.13
2024-01-21T07:42:36.583Z,39.17
2024-01-21T07:45:22.785Z,39.14
2024-01-21T07:48:10.300Z,38.99
2024-01-21T07:50:55.839Z,39.14
2024-01-21T07:53:41.467Z,39.20
2024-01-21T07:56:26.941Z,39.43
2024-01-21T07:59:12.268Z,39.24
2024-01-21T08:01:57.680Z,39.46
2024-01-21T08:04:43.646Z,39.25
2024-01-21T08:07:30.147Z,39.31
2024-01-21T08:10:15.629Z,39.33
2024-01-21T08:13:02.186Z,39.42
2024-01-21T08:15:47.523Z,39.55
2024-01-21T08:18:35.578Z,39.33
2024-01-21T08:21:23.200Z,39.15
2024-01-21T08:24:08.921Z,39.34
2024-01-21T08:26:54.937Z,39.54
2024-01-21T08:29:40.738Z,39.38
2024-01-21T08:32:27.141Z,39.30
2024-01-21T08:35:12.728Z,39.57
2024-01-21T08:37:58.137Z,39.41
2024-01-21T08:40:44.567Z,39.06
2024-01-21T08:43:32.592Z,38.80
2024-01-21T08:46:20.531Z,38.32
2024-01-21T08:49:06.228Z,38.22
2024-01-21T08:51:52.480Z,38.50
2024-01-21T08:54:38.124Z,39.25
2024-01-21T08:57:23.464Z,38.99
2024-01-21T09:00:12.025Z,38.62
2024-01-21T09:02:59.240Z,38.49
2024-01-21T09:05:44.624Z,38.51
2024-01-21T09:08:29.936Z,38.46
2024-01-21T09:11:15.389Z,38.26
2024-01-21T09:14:01.137Z,38.38
2024-01-21T09:16:46.770Z,38.46
2024-01-21T09:19:33.796Z,38.42
2024-01-21T09:22:19.218Z,39.16
2024-01-21T09:25:04.967Z,39.46
2024-01-21T09:27:51.517Z,39.75
2024-01-21T09:30:37.275Z,40.30
2024-01-21T09:33:23.270Z,40.58
2024-01-21T09:36:09.326Z,40.98
2024-01-21T09:38:54.936Z,41.64
2024-01-21T09:41:50.203Z,41.65
2024-01-21T09:44:35.898Z,41.86
2024-01-21T09:47:22.548Z,42.07
2024-01-21T09:50:09.334Z,42.36
2024-01-21T09:52:54.757Z,41.96
2024-01-21T09:55:40.167Z,41.64
2024-01-21T09:58:27.678Z,41.77
2024-01-21T10:01:14.084Z,41.50
2024-01-21T10:03:59.893Z,41.51
2024-01-21T10:06:46.106Z,41.07
2024-01-21T10:09:33.612Z,41.25
2024-01-21T10:12:20.045Z,40.85
2024-01-21T10:15:06.669Z,40.70
2024-01-21T10:17:53.110Z,40.50
2024-01-21T10:20:39.468Z,40.21
2024-01-21T10:23:24.840Z,40.07
2024-01-21T10:26:10.298Z,40.02
2024-01-21T10:28:55.568Z,41.08
2024-01-21T10:31:41.229Z,42.13
2024-01-21T10:34:28.536Z,42.46
2024-01-21T10:37:18.109Z,42.31
2024-01-21T10:40:04.332Z,42.11
2024-01-21T10:42:55.095Z,41.43
2024-01-21T10:45:45.794Z,41.06
2024-01-21T10:48:34.089Z,40.83
2024-01-21T10:51:21.597Z,40.50
2024-01-21T10:54:07.598Z,40.10
2024-01-21T10:56:53.197Z,40.05
2024-01-21T10:59:40.329Z,39.82
2024-01-21T11:02:26.187Z,39.80
2024-01-21T11:05:11.684Z,39.90
2024-01-21T11:08:05.416Z,39.80
2024-01-21T11:11:14.883Z,39.92
2024-01-21T11:14:00.726Z,39.71
2024-01-21T11:16:46.305Z,39.72
2024-01-21T11:19:39.717Z,39.78
2024-01-21T11:22:27.081Z,39.57
2024-01-21T11:25:34.077Z,39.69
2024-01-21T11:28:30.249Z,39.63
2024-01-21T11:31:15.716Z,39.68
2024-01-21T11:34:11.907Z,39.50
2024-01-21T11:36:57.792Z,39.70
2024-01-21T11:39:44.733Z,39.60
2024-01-21T11:42:33.751Z,39.76
2024-01-21T11:45:20.324Z,39.78
2024-01-21T11:48:11.162Z,39.92
2024-01-21T11:50:57.985Z,40.21
2024-01-21T11:53:43.312Z,40.20
2024-01-21T11:56:28.911Z,40.32
2024-01-21T11:59:16.232Z,40.57
2024-01-21T12:02:02.290Z,40.67
2024-01-21T12:04:48.252Z,40.51
2024-01-21T12:07:34.133Z,40.62
2024-01-21T12:10:20.112Z,40.52
2024-01-21T12:13:07.813Z,40.44
2024-01-21T12:15:53.647Z,40.62
2024-01-21T12:18:46.314Z,40.35
2024-01-21T12:21:32.790Z,40.58
2024-01-21T12:24:21.100Z,40.46
2024-01-21T12:27:06.437Z,40.44
2024-01-21T12:29:53.896Z,40.39
2024-01-21T12:32:47.023Z,40.52
2024-01-21T12:35:36.843Z,40.43
2024-01-21T12:38:22.626Z,40.53
2024-01-21T12:41:07.897Z,40.48
2024-01-21T12:43:53.845Z,40.63
2024-01-21T12:46:39.995Z,40.53
2024-01-21T12:49:25.406Z,40.44
2024-01-21T12:52:11.306Z,41.10
2024-01-21T12:54:56.749Z,41.23
2024-01-21T12:57:42.079Z,42.11
2024-01-21T13:00:28.483Z,41.27
2024-01-21T13:03:14.085Z,41.18
2024-01-21T13:06:07.729Z,41.82
2024-01-21T13:08:53.720Z,42.26
2024-01-21T13:11:39.008Z,42.44
2024-01-21T13:14:28.179Z,42.69
2024-01-21T13:17:14.327Z,42.42
2024-01-21T13:19:59.963Z,42.99
2024-01-21T13:22:45.544Z,43.98
2024-01-21T13:25:31.403Z,42.77
2024-01-21T13:28:22.998Z,42.66
2024-01-21T13:31:08.966Z,42.65
2024-01-21T13:33:56.285Z,41.90
2024-01-21T13:36:41.733Z,42.39
2024-01-21T13:39:27.446Z,42.28
2024-01-21T13:42:13.603Z,42.00
2024-01-21T13:44:59.327Z,41.40
2024-01-21T13:47:44.622Z,41.91
2024-01-21T13:50:30.564Z,41.58
2024-01-21T13:53:16.770Z,41.22
2024-01-21T13:56:04.118Z,41.37
2024-01-21T13:58:49.706Z,41.14
2024-01-21T14:01:36.143Z,41.37
2024-01-21T14:04:21.887Z,41.39
2024-01-21T14:07:07.085Z,40.70
2024-01-21T14:09:52.575Z,40.38
2024-01-21T14:12:39.454Z,40.16
2024-01-21T14:15:25.370Z,40.21
2024-01-21T14:18:11.276Z,40.03
2024-01-21T14:20:56.594Z,40.08
2024-01-21T14:23:42.208Z,40.11
2024-01-21T14:26:35.560Z,40.27
2024-01-21T14:29:27.876Z,40.43
2024-01-21T14:32:13.398Z,40.62
2024-01-21T14:34:59.562Z,40.73
2024-01-21T14:37:45.145Z,41.04
2024-01-21T14:40:31.420Z,41.45
2024-01-21T14:43:17.034Z,41.46
2024-01-21T14:46:03.067Z,41.71
2024-01-21T14:48:49.204Z,41.87
2024-01-21T14:51:35.183Z,42.03
2024-01-21T14:54:21.124Z,42.32
2024-01-21T14:57:06.502Z,42.65
2024-01-21T14:59:52.512Z,42.42
2024-01-21T15:02:37.858Z,43.00
2024-01-21T15:05:23.706Z,42.87
2024-01-21T15:08:09.194Z,43.04
2024-01-21T15:10:54.624Z,42.48
2024-01-21T15:13:44.611Z,42.42
2024-01-21T15:16:30.429Z,42.48
2024-01-21T15:19:15.956Z,42.67
2024-01-21T15:22:01.853Z,42.30
2024-01-21T15:24:47.688Z,41.66
2024-01-21T15:27:33.045Z,41.41
2024-01-21T15:30:18.795Z,41.92
2024-01-21T15:33:05.235Z,42.05
2024-01-21T15:35:50.827Z,42.06
2024-01-21T15:38:36.245Z,41.81
2024-01-21T15:41:21.825Z,41.97
2024-01-21T15:44:07.590Z,41.82
2024-01-21T15:46:53.042Z,41.72
2024-01-21T15:49:39.561Z,41.77
2024-01-21T15:52:24.998Z,41.97
2024-01-21T15:55:14.765Z,41.93
2024-01-21T15:58:00.449Z,41.80
2024-01-21T16:00:48.342Z,41.55
2024-01-21T16:03:34.316Z,41.55
2024-01-21T16:06:19.787Z,41.76
2024-01-21T16:09:06.112Z,41.69
2024-01-21T16:11:52.376Z,41.94
2024-01-21T16:14:37.922Z,41.45
2024-01-21T16:17:24.027Z,41.82
2024-01-21T16:20:10.125Z,41.16
2024-01-21T16:22:57.976Z,41.00
2024-01-21T16:25:44.338Z,40.77
2024-01-21T16:28:30.055Z,40.83
2024-01-21T16:31:15.781Z,40.48
2024-01-21T16:34:01.497Z,40.57
2024-01-21T16:36:47.425Z,40.48
2024-01-21T16:39:32.697Z,40.64
2024-01-21T16:42:18.248Z,40.72
2024-01-21T16:45:04.954Z,40.89
2024-01-21T16:47:51.030Z,40.55
2024-01-21T16:50:36.902Z,40.91
2024-01-21T16:53:32.222Z,41.07
2024-01-21T16:56:17.612Z,41.13
2024-01-21T16:59:03.176Z,41.07
2024-01-21T17:01:57.753Z,41.20
2024-01-21T17:04:43.736Z,41.09
2024-01-21T17:07:29.696Z,41.19
2024-01-21T17:10:26.001Z,40.69
2024-01-21T17:13:12.216Z,41.05
2024-01-21T17:15:58.193Z,41.39
2024-01-21T17:18:51.276Z,41.41
2024-01-21T17:21:37.057Z,41.50
2024-01-21T17:24:22.679Z,41.54
2024-01-21T17:27:08.309Z,41.59
2024-01-21T17:29:53.796Z,41.75
2024-01-21T17:32:39.413Z,41.72
2024-01-21T17:35:26.889Z,41.86
2024-01-21T17:38:12.676Z,41.78
2024-01-21T17:40:58.356Z,41.84
2024-01-21T17:43:43.714Z,41.79
2024-01-21T17:46:30.249Z,42.07
2024-01-21T17:49:15.756Z,42.38
2024-01-21T17:52:04.022Z,42.41
2024-01-21T17:54:52.100Z,42.49
2024-01-21T17:57:37.749Z,42.25
2024-01-21T18:00:23.329Z,42.16
2024-01-21T18:03:09.036Z,41.98
2024-01-21T18:05:54.574Z,41.99
2024-01-21T18:08:40.170Z,42.03
2024-01-21T18:11:25.510Z,42.03
2024-01-21T18:14:11.919Z,41.87
2024-01-21T18:16:57.217Z,41.65
2024-01-21T18:19:43.085Z,41.50
2024-01-21T18:22:30.871Z,41.47
2024-01-21T18:25:16.984Z,41.42
2024-01-21T18:28:02.348Z,41.36
2024-01-21T18:30:48.255Z,41.28
2024-01-21T18:33:34.284Z,41.49
2024-01-21T18:36:20.724Z,41.92
2024-01-21T18:39:06.376Z,41.94
2024-01-21T18:41:51.737Z,42.11
2024-01-21T18:44:37.712Z,41.99
2024-01-21T18:47:23.318Z,41.87
2024-01-21T18:50:08.770Z,41.55
2024-01-21T18:52:54.140Z,41.71
2024-01-21T18:55:39.425Z,41.67
2024-01-21T18:58:27.995Z,41.63
2024-01-21T19:01:14.615Z,41.62
2024-01-21T19:04:00.009Z,41.64
2024-01-21T19:06:45.343Z,41.41
2024-01-21T19:09:30.857Z,41.36
2024-01-21T19:12:20.924Z,41.35
2024-01-21T19:15:06.796Z,41.36
2024-01-21T19:17:52.767Z,41.50
2024-01-21T19:20:38.167Z,41.52
2024-01-21T19:23:23.681Z,42.20
2024-01-21T19:26:13.733Z,42.83
2024-01-21T19:29:00.335Z,40.69
2024-01-21T19:31:46.040Z,41.05
2024-01-21T19:34:32.045Z,40.76
2024-01-21T19:37:17.360Z,40.42
2024-01-21T19:40:02.899Z,40.28
2024-01-21T19:42:48.700Z,40.11
2024-01-21T19:45:34.464Z,40.06
2024-01-21T19:48:20.359Z,40.07
2024-01-21T19:51:07.595Z,40.22
2024-01-21T19:53:53.520Z,39.99
2024-01-21T19:56:39.166Z,40.20
2024-01-21T19:59:25.096Z,40.04
2024-01-21T20:02:13.103Z,40.05
2024-01-21T20:04:58.900Z,40.19
2024-01-21T20:07:44.295Z,40.12
2024-01-21T20:10:30.655Z,39.88
2024-01-21T20:13:15.966Z,39.96
2024-01-21T20:16:01.494Z,39.87
2024-01-21T20:18:47.201Z,39.75
2024-01-21T20:21:33.023Z,39.89
2024-01-21T20:24:20.422Z,40.03
2024-01-21T20:27:05.936Z,40.61
2024-01-21T20:29:51.222Z,40.28
2024-01-21T20:32:38.132Z,40.02
2024-01-21T20:35:23.873Z,40.01
2024-01-21T20:38:09.239Z,39.88
2024-01-21T20:40:56.249Z,39.87
2024-01-21T20:43:43.307Z,39.71
2024-01-21T20:46:28.606Z,39.48
2024-01-21T20:49:14.132Z,39.42
2024-01-21T20:51:59.394Z,39.20
2024-01-21T20:54:46.436Z,39.25
2024-01-21T20:57:32.720Z,39.12
2024-01-21T21:00:18.921Z,39.15
2024-01-21T21:03:05.432Z,39.31
2024-01-21T21:05:51.711Z,39.13
2024-01-21T21:08:40.967Z,39.30
2024-01-21T21:11:27.044Z,39.14
2024-01-21T21:14:12.881Z,39.42
2024-01-21T21:16:58.325Z,39.20
2024-01-21T21:19:43.934Z,39.43
2024-01-21T21:22:29.918Z,39.30
2024-01-21T21:25:15.933Z,39.41
2024-01-21T21:28:01.607Z,39.52
2024-01-21T21:30:48.122Z,39.29
2024-01-21T21:33:34.277Z,39.29
2024-01-21T21:36:21.015Z,39.31
2024-01-21T21:39:06.432Z,39.33
2024-01-21T21:41:52.096Z,39.43
2024-01-21T21:44:37.286Z,39.33
2024-01-21T21:47:22.673Z,39.59
2024-01-21T21:50:08.709Z,39.45
2024-01-21T21:52:54.631Z,39.60
2024-01-21T21:55:41.248Z,39.58
2024-01-21T21:58:26.988Z,39.48
2024-01-21T22:01:12.868Z,39.51
2024-01-21T22:03:59.410Z,39.58
2024-01-21T22:06:45.414Z,39.62
2024-01-21T22:09:31.202Z,39.60
2024-01-21T22:12:17.682Z,39.84
2024-01-21T22:15:03.123Z,39.79
2024-01-21T22:17:48.921Z,39.73
2024-01-21T22:20:34.416Z,39.91
2024-01-21T22:23:19.635Z,39.85
2024-01-21T22:26:05.164Z,39.96
2024-01-21T22:28:50.588Z,39.97
2024-01-21T22:31:36.419Z,39.78
2024-01-21T22:34:22.195Z,40.06
2024-01-21T22:37:07.746Z,39.88
2024-01-21T22:39:53.194Z,39.83
2024-01-21T22:42:38.635Z,39.90
2024-01-21T22:45:24.423Z,40.05
2024-01-21T22:48:10.040Z,40.01
2024-01-21T22:50:55.638Z,40.09
2024-01-21T22:53:41.615Z,39.91
2024-01-21T22:56:27.088Z,39.83
2024-01-21T22:59:12.890Z,39.91
2024-01-21T23:01:58.444Z,40.09
2024-01-21T23:04:45.445Z,39.97
2024-01-21T23:07:33.202Z,40.16
2024-01-21T23:10:18.614Z,40.38
2024-01-21T23:13:05.347Z,40.11
2024-01-21T23:15:50.880Z,40.23
2024-01-21T23:18:36.386Z,40.17
2024-01-21T23:21:21.772Z,40.19
2024-01-21T23:24:07.390Z,40.34
2024-01-21T23:26:52.900Z,40.26
2024-01-21T23:29:40.396Z,40.28
2024-01-21T23:32:26.288Z,40.28
2024-01-21T23:35:12.329Z,40.36
2024-01-21T23:37:57.960Z,40.18
2024-01-21T23:40:43.384Z,40.34
2024-01-21T23:43:28.763Z,40.29
2024-01-21T23:46:14.061Z,40.45
2024-01-21T23:48:59.782Z,40.35
2024-01-21T23:51:46.319Z,40.38
2024-01-21T23:54:31.880Z,40.59
2024-01-21T23:57:19.306Z,40.49
